RYR1535 EGAA-BIKF
Flight info
| Callsign | RYR1535 |
|---|---|
| Flight time | 2h 11m |
| Altitude | 34000 |
| Route | BELZU DCT MAC DCT STN DCT BARKU DCT RATSU/M081F340 DCT ALDAN DCT ASRUN ASRUN4N |
| Aircraft | B738/M-SDE2E3FGHIRWXY/LB1 |
Departure
| Time | 2026-05-04 04:32 |
|---|---|
| Airport | Belfast International Airport (EGAA) |
Arrival
| Time | 2026-05-04 06:44 |
|---|---|
| Airport | Keflavik International Airport (BIKF) |
| Time | Latitude | Longitude | Altitude | Speed | Heading |
|---|---|---|---|---|---|
| 2026-05-04 04:19 | 54.65912 | -6.21939 | 234 ft | 0 kts | 336° |
| 2026-05-04 04:24 | 54.65904 | -6.21933 | 234 ft | 2 kts | 336° |
| 2026-05-04 04:24 | 54.65890 | -6.21922 | 235 ft | 2 kts | 336° |
| 2026-05-04 04:25 | 54.65876 | -6.21912 | 235 ft | 2 kts | 336° |
| 2026-05-04 04:25 | 54.65862 | -6.21901 | 235 ft | 1 kts | 336° |
| 2026-05-04 04:25 | 54.65855 | -6.21895 | 236 ft | 1 kts | 312° |
| 2026-05-04 04:25 | 54.65851 | -6.21877 | 236 ft | 1 kts | 256° |
| 2026-05-04 04:26 | 54.65853 | -6.21869 | 236 ft | 1 kts | 239° |
| 2026-05-04 04:26 | 54.65855 | -6.21863 | 236 ft | 0 kts | 244° |
| 2026-05-04 04:27 | 54.65841 | -6.21911 | 235 ft | 9 kts | 244° |
| 2026-05-04 04:28 | 54.65811 | -6.22022 | 234 ft | 10 kts | 245° |
| 2026-05-04 04:28 | 54.65782 | -6.22145 | 233 ft | 11 kts | 253° |
| 2026-05-04 04:28 | 54.65767 | -6.22296 | 230 ft | 14 kts | 263° |
| 2026-05-04 04:28 | 54.65756 | -6.22480 | 226 ft | 16 kts | 265° |
| 2026-05-04 04:29 | 54.65746 | -6.22699 | 221 ft | 19 kts | 261° |
| 2026-05-04 04:29 | 54.65664 | -6.22784 | 222 ft | 13 kts | 168° |
| 2026-05-04 04:29 | 54.65584 | -6.22745 | 225 ft | 10 kts | 162° |
| 2026-05-04 04:29 | 54.65522 | -6.22710 | 227 ft | 8 kts | 162° |
| 2026-05-04 04:30 | 54.65473 | -6.22681 | 228 ft | 7 kts | 162° |
| 2026-05-04 04:30 | 54.65371 | -6.22624 | 230 ft | 24 kts | 163° |
| 2026-05-04 04:30 | 54.65145 | -6.22497 | 240 ft | 42 kts | 161° |
| 2026-05-04 04:30 | 54.64809 | -6.22309 | 250 ft | 58 kts | 162° |
| 2026-05-04 04:31 | 54.64552 | -6.22166 | 257 ft | 25 kts | 163° |
| 2026-05-04 04:31 | 54.64460 | -6.22146 | 258 ft | 4 kts | 129° |
| 2026-05-04 04:31 | 54.64500 | -6.22134 | 257 ft | 9 kts | 341° |
| 2026-05-04 04:31 | 54.64504 | -6.22136 | 257 ft | 0 kts | 340° |
| 2026-05-04 04:32 | 54.64668 | -6.22231 | 254 ft | 73 kts | 342° |
| 2026-05-04 04:32 | 54.65485 | -6.22696 | 245 ft | 168 kts | 342° |
| 2026-05-04 04:32 | 54.66709 | -6.23391 | 1053 ft | 198 kts | 343° |
| 2026-05-04 04:32 | 54.67977 | -6.23961 | 2522 ft | 195 kts | 347° |
| 2026-05-04 04:33 | 54.69277 | -6.24491 | 3610 ft | 206 kts | 346° |
| 2026-05-04 04:33 | 54.70702 | -6.25104 | 4602 ft | 222 kts | 345° |
| 2026-05-04 04:33 | 54.72221 | -6.25783 | 5539 ft | 238 kts | 345° |
| 2026-05-04 04:33 | 54.73848 | -6.26520 | 6430 ft | 253 kts | 345° |
| 2026-05-04 04:34 | 54.75605 | -6.27318 | 7243 ft | 272 kts | 345° |
| 2026-05-04 04:34 | 54.77393 | -6.28129 | 8518 ft | 267 kts | 345° |
| 2026-05-04 04:34 | 54.79185 | -6.28943 | 9515 ft | 273 kts | 345° |
| 2026-05-04 04:34 | 54.81020 | -6.29778 | 10516 ft | 278 kts | 345° |
| 2026-05-04 04:35 | 54.82928 | -6.30647 | 11198 ft | 294 kts | 345° |
| 2026-05-04 04:35 | 54.84938 | -6.31564 | 11847 ft | 309 kts | 345° |
| 2026-05-04 04:35 | 54.87061 | -6.32533 | 12492 ft | 324 kts | 345° |
| 2026-05-04 04:35 | 54.89286 | -6.33549 | 13076 ft | 340 kts | 345° |
| 2026-05-04 04:36 | 54.91589 | -6.34603 | 13624 ft | 355 kts | 345° |
| 2026-05-04 04:36 | 54.94032 | -6.35721 | 14293 ft | 367 kts | 345° |
| 2026-05-04 04:36 | 54.96503 | -6.36855 | 15187 ft | 371 kts | 346° |
| 2026-05-04 04:36 | 54.98998 | -6.38001 | 16127 ft | 373 kts | 346° |
| 2026-05-04 04:37 | 55.06593 | -6.41497 | 18605 ft | 385 kts | 346° |
| 2026-05-04 04:37 | 55.09169 | -6.42687 | 19432 ft | 388 kts | 346° |
| 2026-05-04 04:38 | 55.11769 | -6.43890 | 20201 ft | 392 kts | 346° |
| 2026-05-04 04:38 | 55.14413 | -6.45114 | 20982 ft | 395 kts | 346° |
| 2026-05-04 04:38 | 55.17097 | -6.46359 | 21746 ft | 398 kts | 346° |
| 2026-05-04 04:38 | 55.19779 | -6.47603 | 22479 ft | 402 kts | 346° |
| 2026-05-04 04:39 | 55.22448 | -6.48842 | 23219 ft | 404 kts | 346° |
| 2026-05-04 04:39 | 55.25202 | -6.50119 | 23813 ft | 410 kts | 347° |
| 2026-05-04 04:39 | 55.27925 | -6.51385 | 24563 ft | 411 kts | 346° |
| 2026-05-04 04:39 | 55.30685 | -6.52674 | 25186 ft | 415 kts | 347° |
| 2026-05-04 04:40 | 55.33466 | -6.53976 | 25836 ft | 418 kts | 346° |
| 2026-05-04 04:40 | 55.36295 | -6.55302 | 26447 ft | 421 kts | 347° |
| 2026-05-04 04:40 | 55.39133 | -6.56635 | 27031 ft | 425 kts | 346° |
| 2026-05-04 04:40 | 55.41972 | -6.57970 | 27667 ft | 427 kts | 347° |
| 2026-05-04 04:41 | 55.44821 | -6.59310 | 28241 ft | 430 kts | 346° |
| 2026-05-04 04:41 | 55.47734 | -6.60683 | 28741 ft | 434 kts | 346° |
| 2026-05-04 04:41 | 55.50610 | -6.62040 | 29448 ft | 433 kts | 347° |
| 2026-05-04 04:41 | 55.53505 | -6.63410 | 30353 ft | 426 kts | 347° |
| 2026-05-04 04:42 | 55.56354 | -6.64759 | 31090 ft | 424 kts | 347° |
| 2026-05-04 04:42 | 55.59228 | -6.66118 | 31782 ft | 422 kts | 346° |
| 2026-05-04 04:42 | 55.62053 | -6.67458 | 32396 ft | 421 kts | 346° |
| 2026-05-04 04:42 | 55.64866 | -6.68796 | 33111 ft | 417 kts | 346° |
| 2026-05-04 04:43 | 55.67712 | -6.70152 | 33781 ft | 414 kts | 346° |
| 2026-05-04 04:43 | 55.70560 | -6.71510 | 34020 ft | 418 kts | 346° |
| 2026-05-04 04:43 | 55.76249 | -6.74226 | 34047 ft | 419 kts | 346° |
| 2026-05-04 04:44 | 55.81869 | -6.76923 | 34047 ft | 413 kts | 346° |
| 2026-05-04 04:44 | 55.87414 | -6.79590 | 34046 ft | 415 kts | 346° |
| 2026-05-04 04:45 | 55.92996 | -6.82280 | 34048 ft | 416 kts | 346° |
| 2026-05-04 04:47 | 56.12480 | -6.91737 | 34046 ft | 416 kts | 345° |
| 2026-05-04 04:47 | 56.18055 | -6.94462 | 34044 ft | 414 kts | 345° |
| 2026-05-04 04:48 | 56.23618 | -6.97189 | 34048 ft | 416 kts | 345° |
| 2026-05-04 04:49 | 56.37498 | -7.04026 | 34041 ft | 416 kts | 345° |
| 2026-05-04 04:49 | 56.43079 | -7.06793 | 34040 ft | 415 kts | 345° |
| 2026-05-04 04:50 | 56.48605 | -7.09543 | 34040 ft | 416 kts | 345° |
| 2026-05-04 04:50 | 56.54153 | -7.12314 | 34037 ft | 416 kts | 345° |
| 2026-05-04 04:51 | 56.59728 | -7.15104 | 34036 ft | 415 kts | 345° |
| 2026-05-04 04:51 | 56.65288 | -7.17891 | 34035 ft | 416 kts | 344° |
| 2026-05-04 04:52 | 56.70849 | -7.20686 | 34035 ft | 416 kts | 344° |
| 2026-05-04 04:52 | 56.76422 | -7.23498 | 34033 ft | 416 kts | 344° |
| 2026-05-04 04:53 | 56.81944 | -7.26291 | 34034 ft | 416 kts | 344° |
| 2026-05-04 04:53 | 56.87502 | -7.29111 | 34029 ft | 417 kts | 344° |
| 2026-05-04 04:54 | 56.93086 | -7.31955 | 34029 ft | 418 kts | 343° |
| 2026-05-04 04:54 | 56.98666 | -7.34807 | 34027 ft | 418 kts | 343° |
| 2026-05-04 04:55 | 57.04247 | -7.37668 | 34026 ft | 417 kts | 343° |
| 2026-05-04 04:55 | 57.09789 | -7.40517 | 34025 ft | 416 kts | 343° |
| 2026-05-04 04:56 | 57.15380 | -7.43398 | 34019 ft | 415 kts | 343° |
| 2026-05-04 04:56 | 57.20905 | -7.46255 | 34020 ft | 415 kts | 343° |
| 2026-05-04 04:57 | 57.26423 | -7.49118 | 34018 ft | 415 kts | 343° |
| 2026-05-04 04:57 | 57.31949 | -7.51995 | 34019 ft | 414 kts | 343° |
| 2026-05-04 04:58 | 57.37512 | -7.54898 | 34016 ft | 415 kts | 343° |
| 2026-05-04 04:58 | 57.43016 | -7.57778 | 34015 ft | 414 kts | 343° |
| 2026-05-04 04:59 | 57.48562 | -7.60694 | 34012 ft | 414 kts | 343° |
| 2026-05-04 04:59 | 57.54085 | -7.63605 | 34008 ft | 413 kts | 342° |
| 2026-05-04 05:00 | 57.59598 | -7.66519 | 34004 ft | 413 kts | 342° |
| 2026-05-04 05:01 | 57.67830 | -7.70890 | 34000 ft | 413 kts | 341° |
| 2026-05-04 05:01 | 57.73323 | -7.73819 | 33986 ft | 412 kts | 341° |
| 2026-05-04 05:02 | 57.78840 | -7.76769 | 33982 ft | 413 kts | 341° |
| 2026-05-04 05:02 | 57.84354 | -7.79725 | 33985 ft | 412 kts | 341° |
| 2026-05-04 05:03 | 57.89827 | -7.82669 | 33976 ft | 412 kts | 341° |
| 2026-05-04 05:04 | 58.00813 | -7.88607 | 33969 ft | 412 kts | 341° |
| 2026-05-04 05:04 | 58.06298 | -7.91585 | 33969 ft | 411 kts | 341° |
| 2026-05-04 05:06 | 58.28190 | -8.03568 | 33961 ft | 410 kts | 340° |
| 2026-05-04 05:07 | 58.33622 | -8.06565 | 33953 ft | 410 kts | 340° |
| 2026-05-04 05:07 | 58.39082 | -8.09590 | 33952 ft | 409 kts | 340° |
| 2026-05-04 05:09 | 58.63548 | -8.23257 | 33947 ft | 408 kts | 340° |
| 2026-05-04 05:10 | 58.68946 | -8.26296 | 33940 ft | 406 kts | 340° |
| 2026-05-04 05:10 | 58.74357 | -8.29349 | 33944 ft | 406 kts | 340° |
| 2026-05-04 05:11 | 58.79768 | -8.32416 | 33941 ft | 408 kts | 339° |
| 2026-05-04 05:11 | 58.85169 | -8.35489 | 33942 ft | 407 kts | 339° |
| 2026-05-04 05:12 | 58.90593 | -8.38587 | 33934 ft | 405 kts | 339° |
| 2026-05-04 05:12 | 58.95984 | -8.41678 | 33932 ft | 404 kts | 339° |
| 2026-05-04 05:13 | 59.01353 | -8.44767 | 33936 ft | 405 kts | 339° |
| 2026-05-04 05:13 | 59.06743 | -8.47876 | 33932 ft | 404 kts | 339° |
| 2026-05-04 05:14 | 59.12104 | -8.50973 | 33927 ft | 406 kts | 339° |
| 2026-05-04 05:14 | 59.17509 | -8.54100 | 33923 ft | 405 kts | 339° |
| 2026-05-04 05:15 | 59.22877 | -8.57220 | 33919 ft | 404 kts | 339° |
| 2026-05-04 05:15 | 59.28213 | -8.60336 | 33918 ft | 402 kts | 339° |
| 2026-05-04 05:16 | 59.33577 | -8.63482 | 33918 ft | 403 kts | 338° |
| 2026-05-04 05:16 | 59.38913 | -8.66620 | 33914 ft | 401 kts | 338° |
| 2026-05-04 05:17 | 59.44222 | -8.69753 | 33915 ft | 400 kts | 338° |
| 2026-05-04 05:17 | 59.49548 | -8.72909 | 33911 ft | 401 kts | 338° |
| 2026-05-04 05:18 | 59.54865 | -8.76069 | 33912 ft | 399 kts | 337° |
| 2026-05-04 05:18 | 59.60141 | -8.79210 | 33908 ft | 400 kts | 337° |
| 2026-05-04 05:19 | 59.65468 | -8.82391 | 33907 ft | 399 kts | 337° |
| 2026-05-04 05:19 | 59.70759 | -8.85564 | 33911 ft | 401 kts | 337° |
| 2026-05-04 05:20 | 59.76080 | -8.88765 | 33909 ft | 400 kts | 337° |
| 2026-05-04 05:20 | 59.81387 | -8.91963 | 33905 ft | 398 kts | 337° |
| 2026-05-04 05:21 | 59.86645 | -8.95145 | 33907 ft | 398 kts | 337° |
| 2026-05-04 05:21 | 59.91906 | -8.98339 | 33907 ft | 395 kts | 337° |
| 2026-05-04 05:22 | 59.97171 | -9.01557 | 33905 ft | 398 kts | 336° |
| 2026-05-04 05:22 | 60.02431 | -9.04774 | 33905 ft | 397 kts | 336° |
| 2026-05-04 05:23 | 60.07712 | -9.08008 | 33903 ft | 396 kts | 336° |
| 2026-05-04 05:23 | 60.12966 | -9.11245 | 33911 ft | 396 kts | 336° |
| 2026-05-04 05:24 | 60.18188 | -9.14468 | 33908 ft | 395 kts | 336° |
| 2026-05-04 05:24 | 60.23438 | -9.17722 | 33915 ft | 398 kts | 336° |
| 2026-05-04 05:25 | 60.28729 | -9.21008 | 33914 ft | 395 kts | 336° |
| 2026-05-04 05:25 | 60.33940 | -9.24259 | 33916 ft | 395 kts | 336° |
| 2026-05-04 05:26 | 60.39186 | -9.27545 | 33913 ft | 397 kts | 336° |
| 2026-05-04 05:26 | 60.44434 | -9.30837 | 33919 ft | 396 kts | 336° |
| 2026-05-04 05:28 | 60.64557 | -9.46894 | 33931 ft | 382 kts | 321° |
| 2026-05-04 05:29 | 60.68825 | -9.53279 | 33930 ft | 382 kts | 320° |
| 2026-05-04 05:29 | 60.73073 | -9.59611 | 33934 ft | 380 kts | 320° |
| 2026-05-04 05:31 | 60.90152 | -9.85087 | 33944 ft | 381 kts | 319° |
| 2026-05-04 05:32 | 60.94420 | -9.91519 | 33942 ft | 381 kts | 319° |
| 2026-05-04 05:33 | 61.00309 | -10.02158 | 33942 ft | 375 kts | 306° |
| 2026-05-04 05:33 | 61.03051 | -10.11240 | 33952 ft | 375 kts | 297° |
| 2026-05-04 05:34 | 61.05521 | -10.20585 | 33952 ft | 373 kts | 299° |
| 2026-05-04 05:34 | 61.08100 | -10.29888 | 33975 ft | 373 kts | 299° |
| 2026-05-04 05:35 | 61.10646 | -10.39156 | 33970 ft | 374 kts | 299° |
| 2026-05-04 05:35 | 61.13169 | -10.48483 | 33968 ft | 373 kts | 299° |
| 2026-05-04 05:36 | 61.15685 | -10.57863 | 33969 ft | 373 kts | 298° |
| 2026-05-04 05:36 | 61.18199 | -10.67270 | 33967 ft | 374 kts | 298° |
| 2026-05-04 05:37 | 61.20703 | -10.76699 | 33967 ft | 372 kts | 298° |
| 2026-05-04 05:37 | 61.23188 | -10.86077 | 33968 ft | 374 kts | 298° |
| 2026-05-04 05:38 | 61.26917 | -11.00234 | 33971 ft | 373 kts | 298° |
| 2026-05-04 05:38 | 61.29397 | -11.09707 | 33965 ft | 375 kts | 298° |
| 2026-05-04 05:39 | 61.33111 | -11.23978 | 33951 ft | 373 kts | 298° |
| 2026-05-04 05:40 | 61.36796 | -11.38193 | 33947 ft | 375 kts | 297° |
| 2026-05-04 05:40 | 61.39267 | -11.47791 | 33951 ft | 374 kts | 297° |
| 2026-05-04 05:41 | 61.41698 | -11.57295 | 33949 ft | 374 kts | 298° |
| 2026-05-04 05:41 | 61.44156 | -11.66921 | 33957 ft | 375 kts | 297° |
| 2026-05-04 05:42 | 61.46589 | -11.76503 | 33957 ft | 375 kts | 297° |
| 2026-05-04 05:42 | 61.49027 | -11.86122 | 33956 ft | 374 kts | 297° |
| 2026-05-04 05:43 | 61.51458 | -11.95765 | 33954 ft | 375 kts | 297° |
| 2026-05-04 05:45 | 61.61094 | -12.34413 | 33966 ft | 375 kts | 296° |
| 2026-05-04 05:47 | 61.70654 | -12.73443 | 33955 ft | 376 kts | 296° |
| 2026-05-04 05:47 | 61.73020 | -12.83206 | 33955 ft | 376 kts | 296° |
| 2026-05-04 05:48 | 61.75391 | -12.93048 | 33953 ft | 375 kts | 296° |
| 2026-05-04 05:48 | 61.77739 | -13.02838 | 33949 ft | 376 kts | 296° |
| 2026-05-04 05:49 | 61.80083 | -13.12660 | 33948 ft | 375 kts | 296° |
| 2026-05-04 05:49 | 61.82419 | -13.22472 | 33947 ft | 375 kts | 296° |
| 2026-05-04 05:51 | 61.91695 | -13.61929 | 33960 ft | 376 kts | 295° |
| 2026-05-04 05:52 | 61.94007 | -13.71884 | 33966 ft | 376 kts | 295° |
| 2026-05-04 05:52 | 61.96306 | -13.81811 | 33970 ft | 376 kts | 295° |
| 2026-05-04 05:54 | 62.05467 | -14.21814 | 33966 ft | 377 kts | 295° |
| 2026-05-04 05:55 | 62.07733 | -14.31865 | 33964 ft | 376 kts | 295° |
| 2026-05-04 05:55 | 62.09992 | -14.41855 | 33966 ft | 376 kts | 295° |
| 2026-05-04 05:56 | 62.12241 | -14.51924 | 33955 ft | 377 kts | 295° |
| 2026-05-04 05:56 | 62.14466 | -14.61931 | 33960 ft | 375 kts | 294° |
| 2026-05-04 05:57 | 62.16713 | -14.72057 | 33960 ft | 378 kts | 294° |
| 2026-05-04 05:57 | 62.18941 | -14.82163 | 33961 ft | 376 kts | 294° |
| 2026-05-04 05:58 | 62.21180 | -14.92349 | 33961 ft | 376 kts | 294° |
| 2026-05-04 05:58 | 62.23386 | -15.02434 | 33955 ft | 376 kts | 294° |
| 2026-05-04 05:59 | 62.25599 | -15.12589 | 33959 ft | 377 kts | 294° |
| 2026-05-04 05:59 | 62.27815 | -15.22765 | 33968 ft | 376 kts | 294° |
| 2026-05-04 06:00 | 62.30006 | -15.32974 | 33965 ft | 377 kts | 294° |
| 2026-05-04 06:00 | 62.32199 | -15.43173 | 33966 ft | 376 kts | 294° |
| 2026-05-04 06:01 | 62.34379 | -15.53396 | 33967 ft | 377 kts | 294° |
| 2026-05-04 06:03 | 62.43061 | -15.94537 | 33972 ft | 379 kts | 293° |
| 2026-05-04 06:05 | 62.52717 | -16.41314 | 33980 ft | 381 kts | 293° |
| 2026-05-04 06:06 | 62.54857 | -16.51816 | 33980 ft | 380 kts | 293° |
| 2026-05-04 06:06 | 62.56978 | -16.62281 | 33984 ft | 381 kts | 294° |
| 2026-05-04 06:07 | 62.59110 | -16.72841 | 33982 ft | 382 kts | 293° |
| 2026-05-04 06:07 | 62.61215 | -16.83327 | 33973 ft | 382 kts | 292° |
| 2026-05-04 06:08 | 62.63321 | -16.93900 | 33984 ft | 384 kts | 293° |
| 2026-05-04 06:08 | 62.65433 | -17.04534 | 33974 ft | 382 kts | 292° |
| 2026-05-04 06:09 | 62.67528 | -17.15134 | 33976 ft | 384 kts | 292° |
| 2026-05-04 06:11 | 62.75854 | -17.57916 | 33977 ft | 385 kts | 293° |
| 2026-05-04 06:13 | 62.84077 | -18.01009 | 33983 ft | 386 kts | 292° |
| 2026-05-04 06:14 | 62.91166 | -18.38933 | 33990 ft | 387 kts | 292° |
| 2026-05-04 06:15 | 62.93166 | -18.49767 | 33997 ft | 387 kts | 292° |
| 2026-05-04 06:15 | 62.95170 | -18.60700 | 33996 ft | 388 kts | 292° |
| 2026-05-04 06:16 | 62.97225 | -18.71679 | 33995 ft | 388 kts | 293° |
| 2026-05-04 06:16 | 62.99846 | -18.82048 | 34002 ft | 390 kts | 302° |
| 2026-05-04 06:17 | 63.02980 | -18.91753 | 34010 ft | 391 kts | 304° |
| 2026-05-04 06:17 | 63.06173 | -19.01316 | 34014 ft | 390 kts | 304° |
| 2026-05-04 06:18 | 63.09361 | -19.10981 | 34021 ft | 390 kts | 304° |
| 2026-05-04 06:20 | 63.21893 | -19.49766 | 34031 ft | 388 kts | 303° |
| 2026-05-04 06:21 | 63.29617 | -19.74038 | 34045 ft | 387 kts | 303° |
| 2026-05-04 06:22 | 63.32690 | -19.83747 | 34047 ft | 387 kts | 303° |
| 2026-05-04 06:25 | 63.52806 | -20.48497 | 25489 ft | 357 kts | 303° |
| 2026-05-04 06:25 | 63.54159 | -20.53064 | 24845 ft | 353 kts | 301° |
| 2026-05-04 06:26 | 63.55364 | -20.57867 | 24200 ft | 351 kts | 296° |
| 2026-05-04 06:26 | 63.56287 | -20.62827 | 23568 ft | 347 kts | 291° |
| 2026-05-04 06:26 | 63.57015 | -20.67981 | 22925 ft | 345 kts | 288° |
| 2026-05-04 06:26 | 63.57648 | -20.73136 | 22283 ft | 342 kts | 287° |
| 2026-05-04 06:27 | 63.60056 | -20.93261 | 19734 ft | 331 kts | 287° |
| 2026-05-04 06:28 | 63.60652 | -20.98206 | 19092 ft | 328 kts | 287° |
| 2026-05-04 06:28 | 63.61237 | -21.03068 | 18467 ft | 326 kts | 287° |
| 2026-05-04 06:28 | 63.61824 | -21.07965 | 17809 ft | 324 kts | 287° |
| 2026-05-04 06:28 | 63.62409 | -21.12848 | 17180 ft | 323 kts | 287° |
| 2026-05-04 06:29 | 63.62986 | -21.17680 | 16524 ft | 321 kts | 287° |
| 2026-05-04 06:29 | 63.63557 | -21.22482 | 15876 ft | 319 kts | 287° |
| 2026-05-04 06:29 | 63.64121 | -21.27246 | 15239 ft | 317 kts | 287° |
| 2026-05-04 06:29 | 63.64684 | -21.32001 | 14590 ft | 316 kts | 287° |
| 2026-05-04 06:30 | 63.65240 | -21.36713 | 13914 ft | 314 kts | 288° |
| 2026-05-04 06:30 | 63.65792 | -21.41411 | 13283 ft | 313 kts | 287° |
| 2026-05-04 06:30 | 63.66349 | -21.46168 | 12619 ft | 314 kts | 288° |
| 2026-05-04 06:30 | 63.66896 | -21.50857 | 12155 ft | 308 kts | 288° |
| 2026-05-04 06:31 | 63.67422 | -21.55391 | 12089 ft | 298 kts | 288° |
| 2026-05-04 06:31 | 63.67946 | -21.59907 | 12077 ft | 302 kts | 288° |
| 2026-05-04 06:31 | 63.68483 | -21.64523 | 12078 ft | 309 kts | 288° |
| 2026-05-04 06:31 | 63.69016 | -21.69148 | 12031 ft | 296 kts | 287° |
| 2026-05-04 06:32 | 63.69506 | -21.73459 | 11644 ft | 278 kts | 287° |
| 2026-05-04 06:33 | 63.72472 | -21.99505 | 7619 ft | 240 kts | 288° |
| 2026-05-04 06:34 | 63.72882 | -22.03143 | 6957 ft | 241 kts | 288° |
| 2026-05-04 06:34 | 63.73289 | -22.06761 | 6492 ft | 241 kts | 288° |
| 2026-05-04 06:34 | 63.73694 | -22.10379 | 6108 ft | 239 kts | 288° |
| 2026-05-04 06:34 | 63.74097 | -22.13994 | 5724 ft | 238 kts | 288° |
| 2026-05-04 06:35 | 63.74498 | -22.17606 | 5293 ft | 238 kts | 288° |
| 2026-05-04 06:36 | 63.77253 | -22.41312 | 3467 ft | 197 kts | 295° |
| 2026-05-04 06:37 | 63.77751 | -22.44245 | 3489 ft | 206 kts | 295° |
| 2026-05-04 06:37 | 63.78269 | -22.47310 | 3485 ft | 211 kts | 295° |
| 2026-05-04 06:37 | 63.78769 | -22.50387 | 3483 ft | 207 kts | 294° |
| 2026-05-04 06:37 | 63.79237 | -22.53326 | 3480 ft | 189 kts | 294° |
| 2026-05-04 06:38 | 63.79662 | -22.55983 | 3482 ft | 171 kts | 295° |
| 2026-05-04 06:38 | 63.80106 | -22.58372 | 3059 ft | 167 kts | 305° |
| 2026-05-04 06:40 | 63.87611 | -22.60545 | 1811 ft | 146 kts | 0° |
| 2026-05-04 06:40 | 63.88551 | -22.60527 | 1716 ft | 125 kts | 0° |
| 2026-05-04 06:40 | 63.89398 | -22.60514 | 1527 ft | 124 kts | 360° |
| 2026-05-04 06:40 | 63.90271 | -22.60518 | 1387 ft | 124 kts | 359° |
| 2026-05-04 06:41 | 63.91137 | -22.60526 | 1279 ft | 128 kts | 359° |
| 2026-05-04 06:41 | 63.92022 | -22.60566 | 1189 ft | 122 kts | 359° |
| 2026-05-04 06:41 | 63.92864 | -22.60582 | 1053 ft | 121 kts | 360° |
| 2026-05-04 06:41 | 63.93682 | -22.60591 | 861 ft | 118 kts | 359° |
| 2026-05-04 06:42 | 63.94513 | -22.60611 | 642 ft | 119 kts | 0° |
| 2026-05-04 06:42 | 63.95335 | -22.60578 | 454 ft | 120 kts | 1° |
| 2026-05-04 06:42 | 63.96177 | -22.60560 | 258 ft | 120 kts | 1° |
| 2026-05-04 06:44 | 63.98203 | -22.60733 | 173 ft | 4 kts | 330° |
| 2026-05-04 06:44 | 63.98315 | -22.60880 | 170 ft | 29 kts | 330° |
| 2026-05-04 06:44 | 63.98496 | -22.60947 | 169 ft | 25 kts | 0° |
| 2026-05-04 06:45 | 63.98675 | -22.60947 | 169 ft | 27 kts | 359° |
| 2026-05-04 06:45 | 63.98889 | -22.60944 | 165 ft | 32 kts | 2° |
| 2026-05-04 06:45 | 63.99114 | -22.60946 | 160 ft | 27 kts | 0° |
| 2026-05-04 06:45 | 63.99173 | -22.61157 | 156 ft | 19 kts | 270° |
| 2026-05-04 06:46 | 63.99195 | -22.61429 | 151 ft | 11 kts | 340° |
| 2026-05-04 06:46 | 63.99258 | -22.61428 | 150 ft | 9 kts | 349° |
| 2026-05-04 06:46 | 63.99351 | -22.61442 | 149 ft | 17 kts | 1° |
| 2026-05-04 06:46 | 63.99419 | -22.61454 | 147 ft | 3 kts | 287° |
| 2026-05-04 06:48 | 63.99403 | -22.61725 | 148 ft | 0 kts | 180° |